sensor_id;sensor_type;location;lat;lon;timestamp;pressure;altitude;pressure_sealevel;temperature;humidity
23223;BME280;11780;13.904;100.620;2023-07-29T00:02:20;100425.63;;;32.47;58.71
23223;BME280;11780;13.904;100.620;2023-07-29T00:04:50;100433.34;;;32.41;59.00
23223;BME280;11780;13.904;100.620;2023-07-29T00:07:39;100442.91;;;32.44;59.19
23223;BME280;11780;13.904;100.620;2023-07-29T00:10:09;100439.00;;;32.45;59.16
23223;BME280;11780;13.904;100.620;2023-07-29T00:12:40;100440.72;;;32.49;59.27
23223;BME280;11780;13.904;100.620;2023-07-29T00:15:11;100437.47;;;32.47;59.25
23223;BME280;11780;13.904;100.620;2023-07-29T00:17:42;100440.69;;;32.37;59.65
23223;BME280;11780;13.904;100.620;2023-07-29T00:20:12;100432.59;;;32.32;59.50
23223;BME280;11780;13.904;100.620;2023-07-29T00:22:43;100438.88;;;32.41;59.17
23223;BME280;11780;13.904;100.620;2023-07-29T00:25:13;100449.13;;;32.41;59.28
23223;BME280;11780;13.904;100.620;2023-07-29T00:27:44;100449.47;;;32.39;59.31
23223;BME280;11780;13.904;100.620;2023-07-29T00:30:14;100451.44;;;32.39;59.81
23223;BME280;11780;13.904;100.620;2023-07-29T00:32:45;100443.13;;;32.39;59.38
23223;BME280;11780;13.904;100.620;2023-07-29T00:35:15;100458.94;;;32.38;59.80
23223;BME280;11780;13.904;100.620;2023-07-29T00:37:46;100453.28;;;32.34;59.83
23223;BME280;11780;13.904;100.620;2023-07-29T00:40:20;100454.53;;;32.37;59.35
23223;BME280;11780;13.904;100.620;2023-07-29T00:42:51;100464.25;;;32.43;59.36
23223;BME280;11780;13.904;100.620;2023-07-29T00:45:24;100477.63;;;32.41;59.59
23223;BME280;11780;13.904;100.620;2023-07-29T00:47:56;100483.84;;;32.38;59.45
23223;BME280;11780;13.904;100.620;2023-07-29T00:50:27;100481.19;;;32.42;59.55
23223;BME280;11780;13.904;100.620;2023-07-29T00:53:00;100478.78;;;32.40;59.88
23223;BME280;11780;13.904;100.620;2023-07-29T00:55:30;100484.03;;;32.33;60.17
23223;BME280;11780;13.904;100.620;2023-07-29T00:58:01;100492.69;;;32.31;59.91
23223;BME280;11780;13.904;100.620;2023-07-29T01:00:32;100499.72;;;32.29;60.12
23223;BME280;11780;13.904;100.620;2023-07-29T01:03:03;100502.50;;;32.29;60.13
23223;BME280;11780;13.904;100.620;2023-07-29T01:05:47;100509.81;;;32.25;60.58
23223;BME280;11780;13.904;100.620;2023-07-29T01:08:33;100526.09;;;32.26;60.58
23223;BME280;11780;13.904;100.620;2023-07-29T01:17:09;100542.31;;;32.37;60.38
23223;BME280;11780;13.904;100.620;2023-07-29T01:20:11;100559.06;;;32.40;60.28
23223;BME280;11780;13.904;100.620;2023-07-29T01:22:44;100556.69;;;32.30;60.64
23223;BME280;11780;13.904;100.620;2023-07-29T01:25:15;100557.84;;;32.29;60.60
23223;BME280;11780;13.904;100.620;2023-07-29T01:27:47;100567.22;;;32.37;60.33
23223;BME280;11780;13.904;100.620;2023-07-29T01:30:18;100570.31;;;32.35;60.52
23223;BME280;11780;13.904;100.620;2023-07-29T01:35:32;100580.19;;;32.45;60.32
23223;BME280;11780;13.904;100.620;2023-07-29T01:38:19;100573.50;;;32.46;60.12
23223;BME280;11780;13.904;100.620;2023-07-29T01:40:51;100595.97;;;32.44;60.19
23223;BME280;11780;13.904;100.620;2023-07-29T01:43:23;100594.13;;;32.48;60.27
23223;BME280;11780;13.904;100.620;2023-07-29T01:45:55;100596.09;;;32.48;60.55
23223;BME280;11780;13.904;100.620;2023-07-29T01:48:26;100605.09;;;32.45;60.51
23223;BME280;11780;13.904;100.620;2023-07-29T01:51:00;100598.41;;;32.46;60.83
23223;BME280;11780;13.904;100.620;2023-07-29T01:53:30;100609.94;;;32.48;60.74
23223;BME280;11780;13.904;100.620;2023-07-29T01:56:02;100609.06;;;32.56;60.13
23223;BME280;11780;13.904;100.620;2023-07-29T01:58:34;100611.22;;;32.50;59.66
23223;BME280;11780;13.904;100.620;2023-07-29T02:01:05;100610.44;;;32.50;60.16
23223;BME280;11780;13.904;100.620;2023-07-29T02:03:35;100614.94;;;32.55;59.75
23223;BME280;11780;13.904;100.620;2023-07-29T02:06:06;100614.00;;;32.50;59.64
23223;BME280;11780;13.904;100.620;2023-07-29T02:08:37;100613.53;;;32.48;60.09
23223;BME280;11780;13.904;100.620;2023-07-29T02:11:09;100624.88;;;32.56;59.63
23223;BME280;11780;13.904;100.620;2023-07-29T02:13:40;100631.91;;;32.53;59.75
23223;BME280;11780;13.904;100.620;2023-07-29T02:16:31;100622.31;;;32.50;59.79
23223;BME280;11780;13.904;100.620;2023-07-29T02:19:05;100610.56;;;32.54;59.89
23223;BME280;11780;13.904;100.620;2023-07-29T02:21:36;100614.28;;;32.58;59.79
23223;BME280;11780;13.904;100.620;2023-07-29T02:24:07;100609.75;;;32.53;59.88
23223;BME280;11780;13.904;100.620;2023-07-29T02:26:37;100608.63;;;32.54;59.85
23223;BME280;11780;13.904;100.620;2023-07-29T02:29:08;100624.69;;;32.61;59.88
23223;BME280;11780;13.904;100.620;2023-07-29T02:31:38;100620.41;;;32.63;59.65
23223;BME280;11780;13.904;100.620;2023-07-29T02:34:08;100612.91;;;32.64;59.93
23223;BME280;11780;13.904;100.620;2023-07-29T02:36:39;100615.59;;;32.73;59.83
23223;BME280;11780;13.904;100.620;2023-07-29T02:39:09;100605.47;;;32.77;59.54
23223;BME280;11780;13.904;100.620;2023-07-29T02:41:41;100603.53;;;32.77;58.85
23223;BME280;11780;13.904;100.620;2023-07-29T02:44:12;100609.22;;;32.81;59.39
23223;BME280;11780;13.904;100.620;2023-07-29T02:46:42;100607.28;;;32.73;60.08
23223;BME280;11780;13.904;100.620;2023-07-29T02:49:14;100612.81;;;32.73;60.22
23223;BME280;11780;13.904;100.620;2023-07-29T02:51:45;100603.72;;;32.72;59.78
23223;BME280;11780;13.904;100.620;2023-07-29T02:54:15;100593.91;;;32.75;59.77
23223;BME280;11780;13.904;100.620;2023-07-29T02:56:46;100594.38;;;32.77;59.15
23223;BME280;11780;13.904;100.620;2023-07-29T02:59:16;100589.88;;;32.72;59.33
23223;BME280;11780;13.904;100.620;2023-07-29T03:01:47;100594.94;;;32.70;59.49
23223;BME280;11780;13.904;100.620;2023-07-29T03:04:17;100607.88;;;32.78;59.16
23223;BME280;11780;13.904;100.620;2023-07-29T03:06:48;100612.03;;;32.72;59.03
23223;BME280;11780;13.904;100.620;2023-07-29T03:09:18;100605.81;;;32.75;58.74
23223;BME280;11780;13.904;100.620;2023-07-29T03:11:49;100616.53;;;32.77;58.95
23223;BME280;11780;13.904;100.620;2023-07-29T03:14:21;100614.91;;;32.76;58.93
23223;BME280;11780;13.904;100.620;2023-07-29T03:16:51;100612.63;;;32.78;59.47
23223;BME280;11780;13.904;100.620;2023-07-29T03:19:22;100607.03;;;32.87;59.61
23223;BME280;11780;13.904;100.620;2023-07-29T03:21:52;100600.34;;;32.88;59.54
23223;BME280;11780;13.904;100.620;2023-07-29T03:24:23;100606.56;;;32.85;59.58
23223;BME280;11780;13.904;100.620;2023-07-29T03:26:54;100604.63;;;32.85;59.64
23223;BME280;11780;13.904;100.620;2023-07-29T03:29:24;100604.97;;;32.96;59.13
23223;BME280;11780;13.904;100.620;2023-07-29T03:31:55;100608.69;;;33.00;58.70
23223;BME280;11780;13.904;100.620;2023-07-29T03:34:25;100597.38;;;32.93;58.62
23223;BME280;11780;13.904;100.620;2023-07-29T03:36:56;100597.50;;;32.97;58.29
23223;BME280;11780;13.904;100.620;2023-07-29T03:39:26;100597.50;;;32.97;58.36
23223;BME280;11780;13.904;100.620;2023-07-29T03:41:57;100599.78;;;32.94;58.39
23223;BME280;11780;13.904;100.620;2023-07-29T03:44:28;100597.97;;;32.99;58.43
23223;BME280;11780;13.904;100.620;2023-07-29T03:46:58;100594.38;;;32.98;58.22
23223;BME280;11780;13.904;100.620;2023-07-29T03:49:29;100593.22;;;32.99;58.05
23223;BME280;11780;13.904;100.620;2023-07-29T03:52:00;100595.97;;;32.99;58.49
23223;BME280;11780;13.904;100.620;2023-07-29T03:54:30;100578.31;;;33.04;58.73
23223;BME280;11780;13.904;100.620;2023-07-29T03:57:01;100572.00;;;33.03;58.86
23223;BME280;11780;13.904;100.620;2023-07-29T03:59:32;100577.66;;;33.07;58.81
23223;BME280;11780;13.904;100.620;2023-07-29T04:02:03;100567.97;;;33.13;58.49
23223;BME280;11780;13.904;100.620;2023-07-29T04:04:34;100558.84;;;33.13;59.06
23223;BME280;11780;13.904;100.620;2023-07-29T04:07:09;100557.94;;;33.21;58.53
23223;BME280;11780;13.904;100.620;2023-07-29T04:09:39;100561.50;;;33.21;58.44
23223;BME280;11780;13.904;100.620;2023-07-29T04:12:10;100567.03;;;33.21;58.12
23223;BME280;11780;13.904;100.620;2023-07-29T04:14:41;100557.84;;;33.30;57.74
23223;BME280;11780;13.904;100.620;2023-07-29T04:17:11;100551.56;;;33.33;57.60
23223;BME280;11780;13.904;100.620;2023-07-29T04:19:42;100549.97;;;33.32;57.57
23223;BME280;11780;13.904;100.620;2023-07-29T04:22:13;100540.94;;;33.35;58.03
23223;BME280;11780;13.904;100.620;2023-07-29T04:25:07;100550.31;;;33.30;57.93
23223;BME280;11780;13.904;100.620;2023-07-29T04:27:37;100559.22;;;33.36;57.40
23223;BME280;11780;13.904;100.620;2023-07-29T04:30:08;100561.22;;;33.35;57.29
23223;BME280;11780;13.904;100.620;2023-07-29T04:32:38;100569.72;;;33.30;57.73
23223;BME280;11780;13.904;100.620;2023-07-29T04:35:09;100569.03;;;33.33;57.34
23223;BME280;11780;13.904;100.620;2023-07-29T04:37:40;100558.56;;;33.39;56.39
23223;BME280;11780;13.904;100.620;2023-07-29T04:40:10;100556.13;;;33.37;56.16
23223;BME280;11780;13.904;100.620;2023-07-29T04:42:41;100546.19;;;33.36;56.21
23223;BME280;11780;13.904;100.620;2023-07-29T04:45:11;100542.28;;;33.37;56.28
23223;BME280;11780;13.904;100.620;2023-07-29T04:47:42;100545.38;;;33.36;55.68
23223;BME280;11780;13.904;100.620;2023-07-29T04:50:12;100550.22;;;33.39;55.48
23223;BME280;11780;13.904;100.620;2023-07-29T04:52:43;100549.53;;;33.42;55.40
23223;BME280;11780;13.904;100.620;2023-07-29T04:55:14;100539.81;;;33.36;55.63
23223;BME280;11780;13.904;100.620;2023-07-29T04:57:44;100538.34;;;33.38;55.87
23223;BME280;11780;13.904;100.620;2023-07-29T05:00:15;100529.06;;;33.34;56.39
23223;BME280;11780;13.904;100.620;2023-07-29T05:02:45;100529.56;;;33.49;55.93
23223;BME280;11780;13.904;100.620;2023-07-29T05:05:16;100527.84;;;33.44;55.91
23223;BME280;11780;13.904;100.620;2023-07-29T05:07:47;100519.72;;;33.39;56.13
23223;BME280;11780;13.904;100.620;2023-07-29T05:10:17;100515.69;;;33.49;56.56
23223;BME280;11780;13.904;100.620;2023-07-29T05:12:49;100504.59;;;33.49;56.31
23223;BME280;11780;13.904;100.620;2023-07-29T05:15:21;100497.44;;;33.48;56.34
23223;BME280;11780;13.904;100.620;2023-07-29T05:17:51;100493.50;;;33.49;56.16
23223;BME280;11780;13.904;100.620;2023-07-29T05:20:22;100499.53;;;33.51;56.03
23223;BME280;11780;13.904;100.620;2023-07-29T05:22:52;100495.00;;;33.59;55.24
23223;BME280;11780;13.904;100.620;2023-07-29T05:25:23;100493.03;;;33.59;55.01
23223;BME280;11780;13.904;100.620;2023-07-29T05:27:53;100490.84;;;33.52;55.22
23223;BME280;11780;13.904;100.620;2023-07-29T05:30:24;100487.47;;;33.59;55.40
23223;BME280;11780;13.904;100.620;2023-07-29T05:32:54;100480.66;;;33.69;55.25
23223;BME280;11780;13.904;100.620;2023-07-29T05:35:25;100469.00;;;33.63;55.20
23223;BME280;11780;13.904;100.620;2023-07-29T05:37:56;100479.97;;;33.60;55.55
23223;BME280;11780;13.904;100.620;2023-07-29T05:40:26;100480.09;;;33.63;55.22
23223;BME280;11780;13.904;100.620;2023-07-29T05:42:57;100477.97;;;33.73;54.64
23223;BME280;11780;13.904;100.620;2023-07-29T05:45:27;100471.63;;;33.72;54.47
23223;BME280;11780;13.904;100.620;2023-07-29T05:47:58;100480.31;;;33.70;54.37
23223;BME280;11780;13.904;100.620;2023-07-29T05:50:29;100472.00;;;33.70;54.26
23223;BME280;11780;13.904;100.620;2023-07-29T05:53:00;100480.41;;;33.74;54.39
23223;BME280;11780;13.904;100.620;2023-07-29T05:55:31;100474.78;;;33.70;54.51
23223;BME280;11780;13.904;100.620;2023-07-29T05:58:02;100471.41;;;33.65;55.10
23223;BME280;11780;13.904;100.620;2023-07-29T06:00:32;100473.72;;;33.75;55.00
23223;BME280;11780;13.904;100.620;2023-07-29T06:03:03;100465.72;;;33.74;55.27
23223;BME280;11780;13.904;100.620;2023-07-29T06:05:33;100454.66;;;33.61;55.66
23223;BME280;11780;13.904;100.620;2023-07-29T06:08:04;100454.91;;;33.68;55.86
23223;BME280;11780;13.904;100.620;2023-07-29T06:10:34;100450.47;;;33.80;54.66
23223;BME280;11780;13.904;100.620;2023-07-29T06:13:05;100457.25;;;33.95;52.71
23223;BME280;11780;13.904;100.620;2023-07-29T06:15:36;100448.50;;;33.93;53.48
23223;BME280;11780;13.904;100.620;2023-07-29T06:18:10;100454.84;;;33.93;53.25
23223;BME280;11780;13.904;100.620;2023-07-29T06:20:41;100440.72;;;33.98;53.32
23223;BME280;11780;13.904;100.620;2023-07-29T06:23:11;100440.34;;;34.00;53.19
23223;BME280;11780;13.904;100.620;2023-07-29T06:25:43;100438.97;;;34.06;52.88
23223;BME280;11780;13.904;100.620;2023-07-29T06:28:13;100439.28;;;34.05;53.45
23223;BME280;11780;13.904;100.620;2023-07-29T06:30:44;100430.63;;;34.06;53.18
23223;BME280;11780;13.904;100.620;2023-07-29T06:33:15;100425.63;;;34.12;53.24
23223;BME280;11780;13.904;100.620;2023-07-29T06:35:45;100414.06;;;34.10;52.81
23223;BME280;11780;13.904;100.620;2023-07-29T06:38:15;100402.34;;;34.16;52.51
23223;BME280;11780;13.904;100.620;2023-07-29T06:40:51;100408.63;;;34.13;53.09
23223;BME280;11780;13.904;100.620;2023-07-29T06:43:22;100408.28;;;34.15;53.03
23223;BME280;11780;13.904;100.620;2023-07-29T06:45:54;100402.72;;;34.15;52.92
23223;BME280;11780;13.904;100.620;2023-07-29T06:48:25;100399.50;;;34.13;52.60
23223;BME280;11780;13.904;100.620;2023-07-29T06:50:55;100400.41;;;34.17;52.63
23223;BME280;11780;13.904;100.620;2023-07-29T06:53:30;100393.31;;;34.20;52.68
23223;BME280;11780;13.904;100.620;2023-07-29T06:56:01;100392.25;;;34.24;52.48
23223;BME280;11780;13.904;100.620;2023-07-29T06:58:31;100380.69;;;34.22;52.76
23223;BME280;11780;13.904;100.620;2023-07-29T07:01:02;100372.44;;;34.26;52.63
23223;BME280;11780;13.904;100.620;2023-07-29T07:03:33;100376.50;;;34.28;52.57
23223;BME280;11780;13.904;100.620;2023-07-29T07:06:04;100374.97;;;34.31;52.35
23223;BME280;11780;13.904;100.620;2023-07-29T07:08:35;100371.03;;;34.32;52.39
23223;BME280;11780;13.904;100.620;2023-07-29T07:11:05;100355.53;;;34.31;52.17
23223;BME280;11780;13.904;100.620;2023-07-29T07:13:36;100366.91;;;34.26;52.26
23223;BME280;11780;13.904;100.620;2023-07-29T07:16:07;100371.22;;;34.23;52.73
23223;BME280;11780;13.904;100.620;2023-07-29T07:18:37;100374.06;;;34.27;52.67
23223;BME280;11780;13.904;100.620;2023-07-29T07:21:08;100356.63;;;34.26;52.82
23223;BME280;11780;13.904;100.620;2023-07-29T07:23:39;100363.78;;;34.27;52.85
23223;BME280;11780;13.904;100.620;2023-07-29T07:26:09;100361.47;;;34.29;52.62
23223;BME280;11780;13.904;100.620;2023-07-29T07:28:41;100351.97;;;34.30;52.51
23223;BME280;11780;13.904;100.620;2023-07-29T07:31:11;100360.66;;;34.29;52.33
23223;BME280;11780;13.904;100.620;2023-07-29T07:33:44;100352.69;;;34.27;53.12
23223;BME280;11780;13.904;100.620;2023-07-29T07:36:15;100351.69;;;34.20;52.96
23223;BME280;11780;13.904;100.620;2023-07-29T07:38:45;100353.75;;;34.23;53.18
23223;BME280;11780;13.904;100.620;2023-07-29T07:41:16;100340.06;;;34.30;53.19
23223;BME280;11780;13.904;100.620;2023-07-29T07:43:46;100329.03;;;34.34;52.66
23223;BME280;11780;13.904;100.620;2023-07-29T07:46:16;100335.66;;;34.29;53.04
23223;BME280;11780;13.904;100.620;2023-07-29T07:48:47;100332.81;;;34.25;53.29
23223;BME280;11780;13.904;100.620;2023-07-29T07:51:19;100321.69;;;34.25;53.37
23223;BME280;11780;13.904;100.620;2023-07-29T07:53:49;100318.03;;;34.21;54.00
23223;BME280;11780;13.904;100.620;2023-07-29T07:56:20;100313.81;;;34.27;53.43
23223;BME280;11780;13.904;100.620;2023-07-29T07:58:50;100320.91;;;34.25;53.65
23223;BME280;11780;13.904;100.620;2023-07-29T08:01:20;100314.72;;;34.31;53.59
23223;BME280;11780;13.904;100.620;2023-07-29T08:19:20;100295.03;;;34.21;53.41
23223;BME280;11780;13.904;100.620;2023-07-29T08:21:52;100293.75;;;34.18;53.85
23223;BME280;11780;13.904;100.620;2023-07-29T08:24:29;100290.97;;;34.18;53.98
23223;BME280;11780;13.904;100.620;2023-07-29T08:27:12;100284.63;;;34.18;54.41
23223;BME280;11780;13.904;100.620;2023-07-29T08:29:45;100290.81;;;34.11;54.63
23223;BME280;11780;13.904;100.620;2023-07-29T08:32:17;100283.38;;;34.15;54.55
23223;BME280;11780;13.904;100.620;2023-07-29T08:34:51;100279.16;;;34.05;54.30
23223;BME280;11780;13.904;100.620;2023-07-29T08:37:25;100276.84;;;34.07;54.09
23223;BME280;11780;13.904;100.620;2023-07-29T08:40:00;100275.22;;;34.06;53.94
23223;BME280;11780;13.904;100.620;2023-07-29T08:42:32;100278.81;;;34.07;54.13
23223;BME280;11780;13.904;100.620;2023-07-29T08:45:10;100283.19;;;34.08;54.10
23223;BME280;11780;13.904;100.620;2023-07-29T08:47:43;100282.47;;;34.11;54.12
23223;BME280;11780;13.904;100.620;2023-07-29T08:50:17;100289.97;;;34.10;54.09
23223;BME280;11780;13.904;100.620;2023-07-29T08:52:49;100283.03;;;34.00;54.29
23223;BME280;11780;13.904;100.620;2023-07-29T08:55:26;100287.22;;;34.10;54.28
23223;BME280;11780;13.904;100.620;2023-07-29T08:58:03;100276.38;;;34.21;53.38
23223;BME280;11780;13.904;100.620;2023-07-29T09:00:35;100278.00;;;34.22;53.24
23223;BME280;11780;13.904;100.620;2023-07-29T09:03:09;100277.03;;;34.30;53.47
23223;BME280;11780;13.904;100.620;2023-07-29T09:05:42;100278.19;;;34.29;53.31
23223;BME280;11780;13.904;100.620;2023-07-29T09:08:15;100285.63;;;34.25;53.28
23223;BME280;11780;13.904;100.620;2023-07-29T09:10:48;100276.38;;;34.21;54.14
23223;BME280;11780;13.904;100.620;2023-07-29T09:13:20;100281.06;;;34.17;54.24
23223;BME280;11780;13.904;100.620;2023-07-29T09:15:57;100277.53;;;34.20;53.77
23223;BME280;11780;13.904;100.620;2023-07-29T09:18:31;100286.50;;;34.13;54.25
23223;BME280;11780;13.904;100.620;2023-07-29T09:21:04;100286.88;;;34.12;54.45
23223;BME280;11780;13.904;100.620;2023-07-29T09:23:45;100289.38;;;34.17;53.97
23223;BME280;11780;13.904;100.620;2023-07-29T09:26:22;100285.41;;;34.18;54.23
23223;BME280;11780;13.904;100.620;2023-07-29T09:28:55;100286.41;;;34.10;54.36
23223;BME280;11780;13.904;100.620;2023-07-29T09:31:27;100289.91;;;34.07;54.52
23223;BME280;11780;13.904;100.620;2023-07-29T09:34:04;100281.50;;;34.03;54.59
23223;BME280;11780;13.904;100.620;2023-07-29T09:36:36;100279.88;;;34.02;54.65
23223;BME280;11780;13.904;100.620;2023-07-29T09:39:11;100281.41;;;33.99;54.50
23223;BME280;11780;13.904;100.620;2023-07-29T09:41:47;100278.34;;;34.05;54.63
23223;BME280;11780;13.904;100.620;2023-07-29T09:44:19;100279.97;;;34.06;54.52
23223;BME280;11780;13.904;100.620;2023-07-29T09:46:49;100273.63;;;34.05;54.71
23223;BME280;11780;13.904;100.620;2023-07-29T09:49:22;100268.78;;;34.02;54.59
23223;BME280;11780;13.904;100.620;2023-07-29T09:51:55;100279.50;;;34.04;54.76
23223;BME280;11780;13.904;100.620;2023-07-29T09:54:26;100273.69;;;34.09;54.77
23223;BME280;11780;13.904;100.620;2023-07-29T09:56:56;100275.22;;;34.06;54.93
23223;BME280;11780;13.904;100.620;2023-07-29T09:59:27;100276.72;;;34.04;55.35
23223;BME280;11780;13.904;100.620;2023-07-29T10:01:57;100277.63;;;34.08;55.65
23223;BME280;11780;13.904;100.620;2023-07-29T10:04:29;100283.91;;;34.05;55.08
23223;BME280;11780;13.904;100.620;2023-07-29T10:07:01;100288.28;;;34.06;55.08
23223;BME280;11780;13.904;100.620;2023-07-29T10:09:32;100292.50;;;33.99;55.30
23223;BME280;11780;13.904;100.620;2023-07-29T10:12:03;100287.75;;;34.00;54.63
23223;BME280;11780;13.904;100.620;2023-07-29T10:14:38;100291.75;;;34.03;54.81
23223;BME280;11780;13.904;100.620;2023-07-29T10:17:08;100308.00;;;34.00;55.13
23223;BME280;11780;13.904;100.620;2023-07-29T10:19:39;100299.56;;;33.97;54.99
23223;BME280;11780;13.904;100.620;2023-07-29T10:22:09;100307.53;;;33.98;54.97
23223;BME280;11780;13.904;100.620;2023-07-29T10:24:42;100311.09;;;33.99;54.92
23223;BME280;11780;13.904;100.620;2023-07-29T10:27:17;100316.56;;;33.95;55.44
23223;BME280;11780;13.904;100.620;2023-07-29T10:29:49;100324.88;;;33.95;55.12
23223;BME280;11780;13.904;100.620;2023-07-29T10:32:20;100326.59;;;34.00;55.58
23223;BME280;11780;13.904;100.620;2023-07-29T10:34:55;100321.41;;;33.98;55.78
23223;BME280;11780;13.904;100.620;2023-07-29T10:37:25;100331.34;;;33.99;55.59
23223;BME280;11780;13.904;100.620;2023-07-29T10:39:56;100329.28;;;33.96;55.28
23223;BME280;11780;13.904;100.620;2023-07-29T10:42:27;100334.38;;;33.94;55.55
23223;BME280;11780;13.904;100.620;2023-07-29T10:44:57;100339.31;;;34.01;55.29
23223;BME280;11780;13.904;100.620;2023-07-29T10:47:28;100333.66;;;33.97;55.74
23223;BME280;11780;13.904;100.620;2023-07-29T10:49:59;100340.00;;;33.98;55.70
23223;BME280;11780;13.904;100.620;2023-07-29T10:55:03;100345.22;;;33.99;55.96
23223;BME280;11780;13.904;100.620;2023-07-29T10:57:35;100351.03;;;33.94;56.17
23223;BME280;11780;13.904;100.620;2023-07-29T11:00:06;100359.34;;;33.94;56.61
23223;BME280;11780;13.904;100.620;2023-07-29T11:02:38;100362.81;;;33.91;56.62
23223;BME280;11780;13.904;100.620;2023-07-29T11:05:17;100361.00;;;33.83;56.69
23223;BME280;11780;13.904;100.620;2023-07-29T11:07:48;100366.31;;;33.76;57.41
23223;BME280;11780;13.904;100.620;2023-07-29T11:10:19;100363.59;;;33.63;58.13
23223;BME280;11780;13.904;100.620;2023-07-29T11:12:52;100379.59;;;33.54;59.16
23223;BME280;11780;13.904;100.620;2023-07-29T11:15:28;100363.44;;;33.44;59.02
23223;BME280;11780;13.904;100.620;2023-07-29T11:18:00;100373.97;;;33.38;59.15
23223;BME280;11780;13.904;100.620;2023-07-29T11:20:32;100365.19;;;33.36;58.91
23223;BME280;11780;13.904;100.620;2023-07-29T11:23:04;100365.19;;;33.36;59.32
23223;BME280;11780;13.904;100.620;2023-07-29T11:25:36;100372.91;;;33.30;58.89
23223;BME280;11780;13.904;100.620;2023-07-29T11:28:06;100371.56;;;33.24;59.05
23223;BME280;11780;13.904;100.620;2023-07-29T11:30:39;100378.84;;;33.16;59.01
23223;BME280;11780;13.904;100.620;2023-07-29T11:33:10;100386.78;;;33.18;59.43
23223;BME280;11780;13.904;100.620;2023-07-29T11:35:40;100387.94;;;33.17;59.47
23223;BME280;11780;13.904;100.620;2023-07-29T11:38:15;100383.56;;;33.16;59.19
23223;BME280;11780;13.904;100.620;2023-07-29T11:41:01;100389.69;;;33.09;59.49
23223;BME280;11780;13.904;100.620;2023-07-29T11:43:35;100385.63;;;33.19;59.70
23223;BME280;11780;13.904;100.620;2023-07-29T11:46:06;100392.56;;;33.13;59.55
23223;BME280;11780;13.904;100.620;2023-07-29T11:48:37;100392.81;;;33.07;59.71
23223;BME280;11780;13.904;100.620;2023-07-29T11:51:07;100386.56;;;33.10;59.58
23223;BME280;11780;13.904;100.620;2023-07-29T11:53:38;100398.69;;;33.06;59.13
23223;BME280;11780;13.904;100.620;2023-07-29T11:56:08;100404.00;;;33.11;58.68
23223;BME280;11780;13.904;100.620;2023-07-29T11:58:38;100406.31;;;33.09;58.51
23223;BME280;11780;13.904;100.620;2023-07-29T12:01:09;100416.13;;;33.06;58.75
23223;BME280;11780;13.904;100.620;2023-07-29T12:03:40;100409.66;;;33.02;58.74
23223;BME280;11780;13.904;100.620;2023-07-29T12:06:11;100426.75;;;33.04;58.43
23223;BME280;11780;13.904;100.620;2023-07-29T12:08:42;100426.06;;;33.07;58.78
23223;BME280;11780;13.904;100.620;2023-07-29T12:11:14;100432.75;;;33.06;58.93
23223;BME280;11780;13.904;100.620;2023-07-29T12:13:44;100436.00;;;33.08;58.61
23223;BME280;11780;13.904;100.620;2023-07-29T12:16:17;100438.53;;;33.01;58.90
23223;BME280;11780;13.904;100.620;2023-07-29T12:18:50;100441.06;;;33.06;58.99
23223;BME280;11780;13.904;100.620;2023-07-29T12:21:21;100454.56;;;33.08;58.62
23223;BME280;11780;13.904;100.620;2023-07-29T12:23:51;100449.59;;;33.01;58.26
23223;BME280;11780;13.904;100.620;2023-07-29T12:26:29;100460.94;;;33.08;58.29
23223;BME280;11780;13.904;100.620;2023-07-29T12:29:10;100457.13;;;33.13;58.28
23223;BME280;11780;13.904;100.620;2023-07-29T12:31:41;100459.31;;;33.07;57.93
23223;BME280;11780;13.904;100.620;2023-07-29T12:34:21;100446.84;;;33.14;57.99
23223;BME280;11780;13.904;100.620;2023-07-29T12:36:52;100445.69;;;33.02;57.63
23223;BME280;11780;13.904;100.620;2023-07-29T12:39:28;100442.22;;;32.93;57.44
23223;BME280;11780;13.904;100.620;2023-07-29T12:42:00;100445.31;;;32.91;57.43
23223;BME280;11780;13.904;100.620;2023-07-29T12:44:33;100458.59;;;33.10;57.61
23223;BME280;11780;13.904;100.620;2023-07-29T12:47:05;100461.25;;;33.07;57.26
23223;BME280;11780;13.904;100.620;2023-07-29T12:49:36;100475.84;;;33.16;57.35
23223;BME280;11780;13.904;100.620;2023-07-29T12:52:07;100484.84;;;33.13;57.44
23223;BME280;11780;13.904;100.620;2023-07-29T12:54:37;100486.78;;;33.25;57.55
23223;BME280;11780;13.904;100.620;2023-07-29T12:57:08;100497.66;;;33.18;57.63
23223;BME280;11780;13.904;100.620;2023-07-29T12:59:38;100502.50;;;33.21;57.59
23223;BME280;11780;13.904;100.620;2023-07-29T13:02:08;100502.25;;;33.26;57.58
23223;BME280;11780;13.904;100.620;2023-07-29T13:04:39;100505.84;;;33.27;57.48
23223;BME280;11780;13.904;100.620;2023-07-29T13:07:09;100508.25;;;33.28;57.74
23223;BME280;11780;13.904;100.620;2023-07-29T13:09:40;100520.97;;;33.29;57.54
23223;BME280;11780;13.904;100.620;2023-07-29T13:12:10;100528.50;;;33.29;57.16
23223;BME280;11780;13.904;100.620;2023-07-29T13:14:40;100533.00;;;33.33;58.06
23223;BME280;11780;13.904;100.620;2023-07-29T13:17:11;100526.09;;;33.39;57.70
23223;BME280;11780;13.904;100.620;2023-07-29T13:19:41;100528.13;;;33.30;58.24
23223;BME280;11780;13.904;100.620;2023-07-29T13:22:11;100524.31;;;33.35;57.63